Gandhi — A8OK8 — position and weather

sailwx.info

Track history (hours):
 
Tides and Currents Weather Stations Pressure Air Temp Water Temp Dewpoint Dewpoint Depression Visibility Wind Speed Wind Dir Waves Ship Positions

Gandhi

Last reported at 2016-Sep-26 01:33 UTC. Time now 2016-Sep-26 01:58 UTC.
Position N 40°59' E 028°59'.

Length 176 m; draft 9.1 m.

Type: Tanker. MMSI: 636013645.

Date/timePositionNaut miles runAvg speedWind from/ knotsBaromVisibWave heightAir tempDewpointWater temp
2016-Sep-26 01:33N 40°59' E 028°59'  
2016-Sep-23 15:31N 43°54' E 038°34'2512.6
2016-Sep-23 13:33N 44°05' E 039°04'0 0.1
2016-Sep-23 09:33N 44°05' E 039°05'0 0.0
2016-Sep-23 06:33N 44°05' E 039°05'0 0.0
2016-Sep-23 04:33N 44°05' E 039°05'0 0.0
2016-Sep-23 03:33N 44°05' E 039°05'0 0.0
2016-Sep-23 02:33N 44°05' E 039°05'0 0.0
2016-Sep-23 01:33N 44°05' E 039°05'0 0.0
2016-Sep-23 00:33N 44°05' E 039°05'0 0.0
2016-Sep-22 23:33N 44°05' E 039°05'0 0.0
2016-Sep-22 20:33N 44°05' E 039°05'0 0.0
2016-Sep-22 12:33N 44°05' E 039°05'3 0.4
2016-Sep-22 04:31N 44°02' E 039°06'0 0.1
2016-Sep-22 03:31N 44°03' E 039°06'0 0.0
2016-Sep-22 00:31N 44°03' E 039°06'0 0.0
2016-Sep-21 23:31N 44°02' E 039°06'0 0.0
2016-Sep-21 22:31N 44°03' E 039°06'0 0.0
2016-Sep-21 19:31N 44°03' E 039°06'48413.5
2016-Sep-20 07:33N 40°57' E 028°59'6 5.9
2016-Sep-20 06:33N 40°57' E 028°51'0 0.0
2016-Sep-19 02:31N 40°56' E 028°52'143 8.4
2016-Sep-18 09:19N 39°54' E 026°02'14813.8
2016-Sep-17 22:34N 37°47' E 024°23'1514.0
2016-Sep-17 21:30N 37°37' E 024°10'1314.2
2016-Sep-17 20:33N 37°25' E 024°01'1914.7
2016-Sep-17 19:16N 37°09' E 023°49'  
Track history (hours):
 
Tides and Currents Weather Stations Pressure Air Temp Water Temp Dewpoint Dewpoint Depression Visibility Wind Speed Wind Dir Waves Ship Positions

Gandhi

Last reported at 2016-Sep-26 01:33 UTC. Time now 2016-Sep-26 01:58 UTC.
Position N 40°59' E 028°59'.

Length 176 m; draft 9.1 m.

Type: Tanker. MMSI: 636013645.

Date/timePositionNaut miles runAvg speedWind from/ knotsBaromVisibWave heightAir tempDewpointWater temp
2016-Sep-26 01:33N 40°59' E 028°59'  
2016-Sep-23 15:31N 43°54' E 038°34'2512.6
2016-Sep-23 13:33N 44°05' E 039°04'0 0.1
2016-Sep-23 09:33N 44°05' E 039°05'0 0.0
2016-Sep-23 06:33N 44°05' E 039°05'0 0.0
2016-Sep-23 04:33N 44°05' E 039°05'0 0.0
2016-Sep-23 03:33N 44°05' E 039°05'0 0.0
2016-Sep-23 02:33N 44°05' E 039°05'0 0.0
2016-Sep-23 01:33N 44°05' E 039°05'0 0.0
2016-Sep-23 00:33N 44°05' E 039°05'0 0.0
2016-Sep-22 23:33N 44°05' E 039°05'0 0.0
2016-Sep-22 20:33N 44°05' E 039°05'0 0.0
2016-Sep-22 12:33N 44°05' E 039°05'3 0.4
2016-Sep-22 04:31N 44°02' E 039°06'0 0.1
2016-Sep-22 03:31N 44°03' E 039°06'0 0.0
2016-Sep-22 00:31N 44°03' E 039°06'0 0.0
2016-Sep-21 23:31N 44°02' E 039°06'0 0.0
2016-Sep-21 22:31N 44°03' E 039°06'0 0.0
2016-Sep-21 19:31N 44°03' E 039°06'48413.5
2016-Sep-20 07:33N 40°57' E 028°59'6 5.9
2016-Sep-20 06:33N 40°57' E 028°51'0 0.0
2016-Sep-19 02:31N 40°56' E 028°52'143 8.4
2016-Sep-18 09:19N 39°54' E 026°02'14813.8
2016-Sep-17 22:34N 37°47' E 024°23'1514.0
2016-Sep-17 21:30N 37°37' E 024°10'1314.2
2016-Sep-17 20:33N 37°25' E 024°01'1914.7
2016-Sep-17 19:16N 37°09' E 023°49'  

Dump ship's entire track history